createdAt,value
2023-11-02T00:02:23.461Z,5.18
2023-11-02T00:04:51.947Z,4.85
2023-11-02T00:07:19.750Z,5.47
2023-11-02T00:09:47.573Z,5.07
2023-11-02T00:12:31.554Z,5.15
2023-11-02T00:15:01.538Z,5.00
2023-11-02T00:17:38.627Z,5.10
2023-11-02T00:20:09.413Z,5.10
2023-11-02T00:22:44.936Z,5.38
2023-11-02T00:25:37.966Z,6.30
2023-11-02T00:28:05.444Z,6.30
2023-11-02T00:30:32.557Z,6.13
2023-11-02T00:32:59.960Z,6.50
2023-11-02T00:35:27.179Z,5.65
2023-11-02T00:37:54.336Z,5.60
2023-11-02T00:40:21.885Z,5.05
2023-11-02T00:42:52.503Z,5.63
2023-11-02T00:45:19.768Z,5.45
2023-11-02T00:47:46.944Z,5.30
2023-11-02T00:50:38.981Z,4.95
2023-11-02T00:53:07.498Z,4.72
2023-11-02T00:55:36.562Z,5.47
2023-11-02T00:58:09.922Z,5.68
2023-11-02T01:00:55.391Z,8.40
2023-11-02T01:03:23.428Z,9.45
2023-11-02T01:05:51.282Z,13.20
2023-11-02T01:08:21.866Z,17.65
2023-11-02T01:10:49.072Z,20.52
2023-11-02T01:13:19.520Z,22.55
2023-11-02T01:16:08.540Z,22.00
2023-11-02T01:18:36.524Z,23.73
2023-11-02T01:21:06.150Z,27.00
2023-11-02T01:23:34.928Z,25.70
2023-11-02T01:26:03.241Z,25.25
2023-11-02T01:29:03.615Z,27.45
2023-11-02T01:31:35.980Z,28.35
2023-11-02T01:34:05.283Z,23.65
2023-11-02T01:36:40.569Z,19.08
2023-11-02T01:39:16.898Z,15.85
2023-11-02T01:41:44.682Z,10.85
2023-11-02T01:44:21.351Z,8.02
2023-11-02T01:47:35.466Z,5.70
2023-11-02T01:50:11.594Z,6.00
2023-11-02T01:52:53.141Z,5.75
2023-11-02T01:55:32.943Z,5.38
2023-11-02T01:58:06.113Z,5.78
2023-11-02T02:01:01.365Z,5.15
2023-11-02T02:03:41.510Z,4.78
2023-11-02T02:06:40.151Z,4.85
2023-11-02T02:09:38.037Z,5.00
2023-11-02T02:12:45.242Z,4.85
2023-11-02T02:15:28.014Z,4.55
2023-11-02T02:18:13.507Z,4.63
2023-11-02T02:20:48.892Z,4.63
2023-11-02T02:23:46.360Z,4.30
2023-11-02T02:26:31.581Z,4.45
2023-11-02T02:29:19.862Z,5.10
2023-11-02T02:31:56.298Z,5.00
2023-11-02T02:34:43.667Z,4.60
2023-11-02T02:37:24.604Z,4.07
2023-11-02T02:40:00.517Z,4.45
2023-11-02T02:42:30.186Z,4.40
2023-11-02T02:45:00.815Z,3.88
2023-11-02T02:47:28.868Z,4.28
2023-11-02T02:49:58.554Z,4.75
2023-11-02T02:52:29.238Z,4.53
2023-11-02T02:55:00.555Z,4.68
2023-11-02T02:57:32.332Z,4.28
2023-11-02T03:00:01.481Z,4.75
2023-11-02T03:02:32.890Z,4.25
2023-11-02T03:05:00.666Z,4.28
2023-11-02T03:07:31.723Z,4.38
2023-11-02T03:10:04.269Z,4.60
2023-11-02T03:12:34.515Z,4.53
2023-11-02T03:15:07.522Z,4.90
2023-11-02T03:17:42.230Z,4.13
2023-11-02T03:20:11.464Z,4.45
2023-11-02T03:22:43.401Z,4.68
2023-11-02T03:25:39.632Z,4.95
2023-11-02T03:28:30.707Z,4.88
2023-11-02T03:31:03.717Z,4.38
2023-11-02T03:33:43.023Z,4.97
2023-11-02T03:36:18.023Z,4.80
2023-11-02T03:38:54.015Z,4.40
2023-11-02T03:41:42.527Z,4.43
2023-11-02T03:44:24.619Z,4.65
2023-11-02T03:47:07.680Z,3.72
2023-11-02T03:49:53.735Z,3.95
2023-11-02T03:52:41.565Z,3.67
2023-11-02T03:55:37.512Z,4.47
2023-11-02T03:58:33.878Z,3.85
2023-11-02T04:01:09.888Z,3.50
2023-11-02T04:03:40.291Z,4.30
2023-11-02T04:06:12.171Z,3.40
2023-11-02T04:08:43.902Z,3.63
2023-11-02T04:11:25.629Z,4.07
2023-11-02T04:14:11.020Z,3.70
2023-11-02T04:16:38.402Z,3.60
2023-11-02T04:19:05.643Z,3.50
2023-11-02T04:21:33.282Z,3.42
2023-11-02T04:24:00.429Z,3.65
2023-11-02T04:26:30.770Z,3.60
2023-11-02T04:28:58.227Z,3.38
2023-11-02T04:31:25.453Z,3.10
2023-11-02T04:33:52.680Z,3.38
2023-11-02T04:36:19.848Z,3.50
2023-11-02T04:38:50.483Z,3.20
2023-11-02T04:41:17.751Z,3.08
2023-11-02T04:43:44.829Z,3.05
2023-11-02T04:46:11.997Z,3.17
2023-11-02T04:48:39.199Z,3.30
2023-11-02T04:51:07.092Z,4.05
2023-11-02T04:53:34.110Z,3.47
2023-11-02T04:56:01.294Z,3.10
2023-11-02T04:58:28.392Z,3.47
2023-11-02T05:00:55.536Z,3.47
2023-11-02T05:03:22.710Z,3.22
2023-11-02T05:05:49.985Z,3.20
2023-11-02T05:08:17.039Z,3.10
2023-11-02T05:10:44.793Z,3.10
2023-11-02T05:13:11.865Z,3.63
2023-11-02T05:15:54.070Z,3.83
2023-11-02T05:18:24.428Z,3.10
2023-11-02T05:20:59.053Z,3.42
2023-11-02T05:23:26.699Z,3.67
2023-11-02T05:25:53.925Z,3.50
2023-11-02T05:28:22.221Z,3.53
2023-11-02T05:30:49.425Z,3.10
2023-11-02T05:33:16.591Z,3.50
2023-11-02T05:35:43.711Z,3.33
2023-11-02T05:38:10.853Z,3.00
2023-11-02T05:40:37.983Z,3.65
2023-11-02T05:43:05.263Z,3.17
2023-11-02T05:45:32.284Z,3.40
2023-11-02T05:47:59.433Z,3.35
2023-11-02T05:50:27.933Z,3.08
2023-11-02T05:52:58.364Z,3.08
2023-11-02T05:55:25.636Z,3.05
2023-11-02T05:57:55.100Z,3.42
2023-11-02T06:00:23.521Z,3.00
2023-11-02T06:02:50.586Z,3.58
2023-11-02T06:05:17.813Z,3.38
2023-11-02T06:07:44.817Z,3.60
2023-11-02T06:10:12.076Z,3.42
2023-11-02T06:12:39.342Z,3.67
2023-11-02T06:15:07.239Z,3.60
2023-11-02T06:17:34.331Z,3.78
2023-11-02T06:20:01.490Z,3.92
2023-11-02T06:22:28.614Z,3.22
2023-11-02T06:24:55.607Z,3.45
2023-11-02T06:27:22.831Z,4.00
2023-11-02T06:29:50.034Z,3.90
2023-11-02T06:32:17.296Z,4.20
2023-11-02T06:34:44.404Z,3.88
2023-11-02T06:37:12.978Z,3.60
2023-11-02T06:39:40.339Z,4.05
2023-11-02T06:42:09.539Z,3.65
2023-11-02T06:44:40.534Z,3.80
2023-11-02T06:47:08.116Z,3.63
2023-11-02T06:49:35.375Z,4.03
2023-11-02T06:52:03.835Z,3.97
2023-11-02T06:54:30.984Z,4.13
2023-11-02T06:56:58.813Z,3.95
2023-11-02T06:59:25.907Z,3.78
2023-11-02T07:01:54.352Z,3.47
2023-11-02T07:04:21.900Z,3.92
2023-11-02T07:06:49.389Z,4.15
2023-11-02T07:09:17.278Z,4.10
2023-11-02T07:11:44.506Z,3.90
2023-11-02T07:14:11.630Z,3.65
2023-11-02T07:16:38.901Z,3.88
2023-11-02T07:19:06.701Z,3.63
2023-11-02T07:21:35.441Z,3.80
2023-11-02T07:24:03.822Z,3.67
2023-11-02T07:26:31.120Z,4.40
2023-11-02T07:28:58.764Z,4.68
2023-11-02T07:31:25.998Z,4.32
2023-11-02T07:33:53.149Z,3.83
2023-11-02T07:36:25.606Z,4.50
2023-11-02T07:38:54.339Z,4.50
2023-11-02T07:41:22.429Z,3.63
2023-11-02T07:43:49.718Z,3.65
2023-11-02T07:46:16.791Z,4.00
2023-11-02T07:48:43.929Z,4.45
2023-11-02T07:51:17.203Z,4.35
2023-11-02T07:53:44.393Z,4.10
2023-11-02T07:56:11.576Z,3.90
2023-11-02T07:58:43.657Z,4.45
2023-11-02T08:01:11.306Z,3.92
2023-11-02T08:03:38.536Z,4.20
2023-11-02T08:06:06.221Z,4.53
2023-11-02T08:08:33.492Z,3.88
2023-11-02T08:11:00.659Z,4.22
2023-11-02T08:13:27.685Z,4.47
2023-11-02T08:15:56.845Z,4.40
2023-11-02T08:18:24.327Z,4.13
2023-11-02T08:20:51.419Z,4.65
2023-11-02T08:23:19.931Z,4.80
2023-11-02T08:25:47.207Z,4.72
2023-11-02T08:28:14.785Z,4.57
2023-11-02T08:30:41.876Z,4.00
2023-11-02T08:33:10.649Z,4.75
2023-11-02T08:35:37.822Z,5.10
2023-11-02T08:38:05.017Z,5.00
2023-11-02T08:40:32.190Z,4.90
2023-11-02T08:42:59.553Z,5.38
2023-11-02T08:45:26.655Z,4.88
2023-11-02T08:47:53.752Z,5.80
2023-11-02T08:50:20.848Z,5.18
2023-11-02T08:52:48.564Z,6.25
2023-11-02T08:55:15.631Z,5.28
2023-11-02T08:57:42.789Z,5.80
2023-11-02T09:00:10.440Z,5.38
2023-11-02T09:02:37.945Z,5.25
2023-11-02T09:05:05.488Z,4.95
2023-11-02T09:07:32.691Z,5.43
2023-11-02T09:09:59.757Z,5.53
2023-11-02T09:12:26.874Z,5.45
2023-11-02T09:14:53.968Z,5.10
2023-11-02T09:17:21.039Z,4.78
2023-11-02T09:19:48.266Z,5.38
2023-11-02T09:22:15.415Z,5.03
2023-11-02T09:24:43.125Z,5.22
2023-11-02T09:27:10.276Z,5.18
2023-11-02T09:29:37.401Z,5.25
2023-11-02T09:32:05.111Z,5.38
2023-11-02T09:34:33.240Z,5.07
2023-11-02T09:37:01.254Z,5.25
2023-11-02T09:39:30.604Z,5.60
2023-11-02T09:41:57.783Z,5.00
2023-11-02T09:44:27.617Z,4.90
2023-11-02T09:46:54.977Z,4.82
2023-11-02T09:49:22.283Z,4.68
2023-11-02T09:51:49.506Z,5.30
2023-11-02T09:54:16.783Z,5.15
2023-11-02T09:56:45.072Z,4.38
2023-11-02T09:59:12.968Z,4.60
2023-11-02T10:01:40.529Z,4.55
2023-11-02T10:04:07.917Z,4.15
2023-11-02T10:06:37.007Z,4.43
2023-11-02T10:09:05.409Z,5.13
2023-11-02T10:11:32.665Z,4.68
2023-11-02T10:14:00.042Z,4.78
2023-11-02T10:16:27.293Z,3.90
2023-11-02T10:18:54.750Z,4.35
2023-11-02T10:21:22.070Z,3.85
2023-11-02T10:23:56.076Z,4.15
2023-11-02T10:26:30.131Z,4.35
2023-11-02T10:29:00.302Z,3.15
2023-11-02T10:31:31.933Z,3.50
2023-11-02T10:34:02.733Z,3.30
2023-11-02T10:36:34.677Z,3.00
2023-11-02T10:39:02.034Z,3.90
2023-11-02T10:41:29.976Z,3.67
2023-11-02T10:44:00.507Z,3.42
2023-11-02T10:46:29.112Z,3.40
2023-11-02T10:49:03.006Z,3.38
2023-11-02T10:51:31.904Z,3.17
2023-11-02T10:54:17.632Z,3.22
2023-11-02T10:56:50.345Z,3.53
2023-11-02T10:59:19.046Z,3.90
2023-11-02T11:01:46.671Z,3.17
2023-11-02T11:04:14.916Z,3.35
2023-11-02T11:06:44.980Z,3.50
2023-11-02T11:09:14.045Z,3.42
2023-11-02T11:11:41.512Z,3.35
2023-11-02T11:14:10.902Z,3.38
2023-11-02T11:16:42.023Z,3.55
2023-11-02T11:19:09.779Z,3.53
2023-11-02T11:21:39.977Z,3.30
2023-11-02T11:24:14.269Z,3.45
2023-11-02T11:26:53.502Z,3.30
2023-11-02T11:29:41.335Z,5.60
2023-11-02T11:32:10.343Z,3.58
2023-11-02T11:34:58.772Z,3.03
2023-11-02T11:37:50.931Z,3.17
2023-11-02T11:40:21.217Z,4.10
2023-11-02T11:43:01.459Z,3.85
2023-11-02T11:45:33.044Z,3.00
2023-11-02T11:48:09.154Z,3.10
2023-11-02T11:50:39.366Z,3.80
2023-11-02T11:53:24.494Z,2.65
2023-11-02T11:55:53.380Z,2.25
2023-11-02T11:58:46.432Z,2.83
2023-11-02T12:01:19.316Z,3.17
2023-11-02T12:03:48.585Z,2.70
2023-11-02T12:06:16.938Z,3.30
2023-11-02T12:08:49.209Z,3.00
2023-11-02T12:11:26.654Z,2.72
2023-11-02T12:14:02.269Z,2.67
2023-11-02T12:16:34.350Z,2.50
2023-11-02T12:19:02.818Z,2.50
2023-11-02T12:21:30.220Z,2.80
2023-11-02T12:23:58.339Z,3.08
2023-11-02T12:26:27.438Z,2.85
2023-11-02T12:28:59.192Z,2.75
2023-11-02T12:31:31.343Z,3.00
2023-11-02T12:34:03.721Z,2.75
2023-11-02T12:36:31.265Z,2.67
2023-11-02T12:38:58.286Z,2.63
2023-11-02T12:41:31.042Z,2.33
2023-11-02T12:44:14.013Z,2.65
2023-11-02T12:46:49.465Z,2.72
2023-11-02T12:49:22.524Z,2.58
2023-11-02T12:52:01.765Z,3.40
2023-11-02T12:54:32.878Z,2.47
2023-11-02T12:57:08.698Z,2.40
2023-11-02T12:59:41.805Z,2.42
2023-11-02T13:02:12.679Z,2.28
2023-11-02T13:05:07.392Z,2.58
2023-11-02T13:07:37.419Z,2.00
2023-11-02T13:10:11.506Z,2.47
2023-11-02T13:12:41.079Z,1.95
2023-11-02T13:15:10.301Z,2.00
2023-11-02T13:17:40.090Z,2.30
2023-11-02T13:20:10.840Z,1.83
2023-11-02T13:22:39.083Z,1.67
2023-11-02T13:25:08.329Z,1.70
2023-11-02T13:27:36.390Z,1.52
2023-11-02T13:30:04.513Z,1.95
2023-11-02T13:32:31.834Z,1.88
2023-11-02T13:34:59.069Z,2.15
2023-11-02T13:37:28.174Z,1.88
2023-11-02T13:39:55.417Z,1.63
2023-11-02T13:42:23.279Z,1.50
2023-11-02T13:44:50.437Z,1.90
2023-11-02T13:47:18.512Z,1.80
2023-11-02T13:49:45.605Z,1.70
2023-11-02T13:52:12.918Z,2.20
2023-11-02T13:54:40.007Z,1.88
2023-11-02T13:57:07.130Z,2.33
2023-11-02T13:59:34.120Z,1.95
2023-11-02T14:02:01.452Z,1.92
2023-11-02T14:04:28.735Z,2.45
2023-11-02T14:06:58.048Z,1.67
2023-11-02T14:09:25.692Z,1.95
2023-11-02T14:11:52.761Z,2.35
2023-11-02T14:14:19.828Z,2.08
2023-11-02T14:16:46.876Z,2.30
2023-11-02T14:19:14.040Z,2.05
2023-11-02T14:21:41.230Z,2.30
2023-11-02T14:24:08.866Z,2.33
2023-11-02T14:26:36.366Z,2.42
2023-11-02T14:29:03.550Z,2.03
2023-11-02T14:31:30.758Z,2.30
2023-11-02T14:33:57.925Z,2.00
2023-11-02T14:36:25.688Z,2.00
2023-11-02T14:38:54.362Z,1.90
2023-11-02T14:41:22.574Z,1.70
2023-11-02T14:43:49.629Z,2.08
2023-11-02T14:46:16.876Z,3.22
2023-11-02T14:48:44.141Z,2.40
2023-11-02T14:51:11.458Z,1.67
2023-11-02T14:53:38.830Z,2.03
2023-11-02T14:56:06.436Z,2.05
2023-11-02T14:58:34.324Z,1.90
2023-11-02T15:01:02.877Z,2.10
2023-11-02T15:03:30.206Z,2.10
2023-11-02T15:05:57.945Z,2.13
2023-11-02T15:08:25.419Z,2.20
2023-11-02T15:10:52.526Z,2.88
2023-11-02T15:13:20.258Z,3.00
2023-11-02T15:15:47.494Z,3.08
2023-11-02T15:18:14.650Z,3.58
2023-11-02T15:20:41.742Z,3.53
2023-11-02T15:23:08.802Z,3.90
2023-11-02T15:25:35.878Z,3.00
2023-11-02T15:28:04.666Z,3.13
2023-11-02T15:30:31.897Z,3.40
2023-11-02T15:32:59.029Z,3.10
2023-11-02T15:35:26.126Z,3.00
2023-11-02T15:37:53.255Z,3.20
2023-11-02T15:40:20.268Z,2.83
2023-11-02T15:42:47.452Z,2.70
2023-11-02T15:45:14.705Z,2.70
2023-11-02T15:47:41.986Z,2.60
2023-11-02T15:50:09.885Z,2.50
2023-11-02T15:52:45.116Z,2.42
2023-11-02T15:55:12.667Z,2.45
2023-11-02T15:57:44.523Z,2.45
2023-11-02T16:00:13.318Z,2.83
2023-11-02T16:02:41.126Z,2.65
2023-11-02T16:05:08.622Z,2.25
2023-11-02T16:07:36.850Z,2.88
2023-11-02T16:10:04.172Z,3.20
2023-11-02T16:12:31.248Z,2.78
2023-11-02T16:14:58.398Z,2.95
2023-11-02T16:17:25.455Z,3.03
2023-11-02T16:19:53.444Z,3.08
2023-11-02T16:22:20.751Z,3.40
2023-11-02T16:24:48.017Z,3.10
2023-11-02T16:27:15.568Z,3.00
2023-11-02T16:29:43.396Z,2.80
2023-11-02T16:32:10.464Z,2.75
2023-11-02T16:34:43.285Z,2.97
2023-11-02T16:37:12.673Z,2.65
2023-11-02T16:39:44.405Z,2.75
2023-11-02T16:42:11.753Z,2.63
2023-11-02T16:44:38.790Z,3.05
2023-11-02T16:47:07.600Z,3.08
2023-11-02T16:49:35.028Z,3.00
2023-11-02T16:52:05.308Z,3.30
2023-11-02T16:54:33.348Z,3.28
2023-11-02T16:57:00.447Z,2.95
2023-11-02T16:59:27.638Z,3.65
2023-11-02T17:01:55.618Z,3.30
2023-11-02T17:04:22.918Z,3.13
2023-11-02T17:06:51.897Z,3.03
2023-11-02T17:09:19.484Z,3.35
2023-11-02T17:11:46.676Z,4.20
2023-11-02T17:14:13.711Z,5.10
2023-11-02T17:16:41.829Z,4.55
2023-11-02T17:19:11.139Z,5.47
2023-11-02T17:21:40.063Z,4.85
2023-11-02T17:24:07.725Z,4.78
2023-11-02T17:26:34.935Z,5.53
2023-11-02T17:29:01.976Z,4.72
2023-11-02T17:31:30.803Z,4.65
2023-11-02T17:33:58.369Z,4.88
2023-11-02T17:36:25.542Z,6.05
2023-11-02T17:38:52.639Z,4.45
2023-11-02T17:41:19.897Z,4.57
2023-11-02T17:43:47.029Z,4.20
2023-11-02T17:46:17.418Z,3.95
2023-11-02T17:48:45.154Z,4.90
2023-11-02T17:51:12.463Z,4.22
2023-11-02T17:53:39.564Z,4.55
2023-11-02T17:56:07.134Z,4.82
2023-11-02T17:58:34.262Z,3.72
2023-11-02T18:01:01.592Z,3.83
2023-11-02T18:03:29.277Z,4.18
2023-11-02T18:05:56.587Z,4.75
2023-11-02T18:08:23.728Z,4.70
2023-11-02T18:10:51.081Z,4.30
2023-11-02T18:13:18.252Z,4.45
2023-11-02T18:15:50.802Z,4.13
2023-11-02T18:18:20.926Z,3.58
2023-11-02T18:20:48.118Z,3.67
2023-11-02T18:23:16.647Z,3.47
2023-11-02T18:25:43.950Z,4.93
2023-11-02T18:28:11.037Z,4.32
2023-11-02T18:30:38.500Z,4.35
2023-11-02T18:33:05.787Z,4.75
2023-11-02T18:35:32.986Z,4.28
2023-11-02T18:38:00.200Z,4.05
2023-11-02T18:40:27.581Z,4.72
2023-11-02T18:42:54.985Z,4.22
2023-11-02T18:45:22.379Z,4.05
2023-11-02T18:47:49.611Z,4.32
2023-11-02T18:50:17.637Z,3.80
2023-11-02T18:52:44.806Z,3.95
2023-11-02T18:55:12.030Z,4.40
2023-11-02T18:57:39.188Z,3.67
2023-11-02T19:00:08.511Z,4.32
2023-11-02T19:02:40.450Z,4.10
2023-11-02T19:05:09.027Z,4.22
2023-11-02T19:07:39.125Z,5.05
2023-11-02T19:10:07.467Z,4.22
2023-11-02T19:12:34.531Z,3.72
2023-11-02T19:15:01.622Z,3.83
2023-11-02T19:17:29.312Z,3.67
2023-11-02T19:19:56.559Z,3.90
2023-11-02T19:22:23.654Z,3.80
2023-11-02T19:24:50.680Z,4.38
2023-11-02T19:27:19.903Z,3.25
2023-11-02T19:29:47.232Z,4.18
2023-11-02T19:32:14.212Z,3.53
2023-11-02T19:34:41.339Z,3.58
2023-11-02T19:37:08.496Z,4.05
2023-11-02T19:39:35.909Z,4.07
2023-11-02T19:42:03.536Z,3.75
2023-11-02T19:44:30.817Z,4.15
2023-11-02T19:46:57.820Z,4.57
2023-11-02T19:49:25.078Z,4.25
2023-11-02T19:51:52.331Z,4.65
2023-11-02T19:54:19.518Z,4.38
2023-11-02T19:56:47.130Z,3.97
2023-11-02T19:59:14.544Z,4.30
2023-11-02T20:01:42.082Z,3.95
2023-11-02T20:04:12.521Z,3.83
2023-11-02T20:06:40.814Z,4.00
2023-11-02T20:09:09.859Z,3.75
2023-11-02T20:11:37.781Z,3.83
2023-11-02T20:14:05.668Z,3.40
2023-11-02T20:16:33.208Z,4.25
2023-11-02T20:19:00.382Z,4.00
2023-11-02T20:21:27.671Z,4.05
2023-11-02T20:23:54.814Z,4.03
2023-11-02T20:26:22.222Z,5.10
2023-11-02T20:28:49.444Z,4.78
2023-11-02T20:31:16.605Z,5.53
2023-11-02T20:33:44.041Z,5.45
2023-11-02T20:36:11.544Z,4.75
2023-11-02T20:38:39.326Z,5.10
2023-11-02T20:41:07.304Z,4.90
2023-11-02T20:43:36.594Z,4.22
2023-11-02T20:46:04.307Z,3.63
2023-11-02T20:48:35.372Z,4.00
2023-11-02T20:51:07.073Z,4.18
2023-11-02T20:53:34.212Z,3.78
2023-11-02T20:56:01.460Z,3.72
2023-11-02T20:58:28.736Z,3.60
2023-11-02T21:00:56.524Z,3.45
2023-11-02T21:03:23.880Z,2.97
2023-11-02T21:05:54.859Z,3.33
2023-11-02T21:08:22.057Z,4.05
2023-11-02T21:10:49.633Z,3.30
2023-11-02T21:13:18.911Z,3.22
2023-11-02T21:15:46.708Z,3.63
2023-11-02T21:18:14.173Z,3.50
2023-11-02T21:20:41.456Z,3.75
2023-11-02T21:23:08.605Z,3.20
2023-11-02T21:25:35.814Z,3.10
2023-11-02T21:28:03.050Z,3.40
2023-11-02T21:30:30.493Z,3.22
2023-11-02T21:32:58.713Z,2.65
2023-11-02T21:35:26.226Z,2.60
2023-11-02T21:37:53.947Z,2.55
2023-11-02T21:40:21.757Z,2.42
2023-11-02T21:42:49.442Z,2.00
2023-11-02T21:45:18.879Z,2.00
2023-11-02T21:47:46.243Z,2.00
2023-11-02T21:50:13.594Z,2.05
2023-11-02T21:52:40.930Z,2.08
2023-11-02T21:55:09.306Z,2.33
2023-11-02T21:57:36.476Z,3.10
2023-11-02T22:00:08.107Z,2.70
2023-11-02T22:02:35.540Z,2.80
2023-11-02T22:05:07.396Z,2.83
2023-11-02T22:07:34.597Z,2.67
2023-11-02T22:10:01.910Z,3.05
2023-11-02T22:12:29.453Z,2.50
2023-11-02T22:14:56.536Z,2.83
2023-11-02T22:17:23.763Z,2.60
2023-11-02T22:19:50.864Z,2.70
2023-11-02T22:22:18.012Z,2.88
2023-11-02T22:24:45.279Z,2.40
2023-11-02T22:27:12.529Z,2.38
2023-11-02T22:29:41.199Z,2.85
2023-11-02T22:32:08.767Z,2.67
2023-11-02T22:34:36.183Z,2.40
2023-11-02T22:37:03.674Z,2.00
2023-11-02T22:39:30.905Z,1.98
2023-11-02T22:41:58.177Z,2.22
2023-11-02T22:44:26.281Z,2.30
2023-11-02T22:46:53.392Z,1.88
2023-11-02T22:49:20.801Z,2.03
2023-11-02T22:51:49.151Z,1.92
2023-11-02T22:54:17.122Z,1.83
2023-11-02T22:56:45.030Z,2.20
2023-11-02T22:59:12.142Z,1.90
2023-11-02T23:01:39.307Z,2.20
2023-11-02T23:04:06.621Z,2.42
2023-11-02T23:06:34.237Z,2.22
2023-11-02T23:09:01.316Z,2.20
2023-11-02T23:11:28.486Z,2.28
2023-11-02T23:13:55.576Z,1.85
2023-11-02T23:16:23.056Z,1.85
2023-11-02T23:18:50.522Z,2.20
2023-11-02T23:21:18.221Z,2.00
2023-11-02T23:23:45.958Z,1.95
2023-11-02T23:26:13.586Z,2.17
2023-11-02T23:28:40.782Z,2.00
2023-11-02T23:31:08.490Z,1.85
2023-11-02T23:33:35.826Z,2.20
2023-11-02T23:36:03.694Z,1.88
2023-11-02T23:38:31.540Z,1.85
2023-11-02T23:40:58.608Z,1.90
2023-11-02T23:43:25.932Z,1.70
2023-11-02T23:45:53.116Z,1.80
2023-11-02T23:48:20.327Z,2.22
2023-11-02T23:50:47.380Z,2.10
2023-11-02T23:53:14.673Z,2.60
2023-11-02T23:55:41.680Z,2.60
2023-11-02T23:58:08.836Z,2.50
